Pernille — 5BNZ2 — position and weather

sailwx.info

Track history (hours):
 
Tides and Currents Weather Stations Pressure Air Temp Water Temp Dewpoint Dewpoint Depression Visibility Wind Speed Wind Dir Waves Ship Positions

Pernille

Last reported at 2017-Feb-24 23:33 UTC. Time now 2017-Feb-25 05:19 UTC.
Position N 54°34' E 010°35'.

Length 83 m; draft 5.6 m.

Type: Cargo ship. MMSI: 212662000.

Date/timePositionNaut miles runAvg speedWind from/ knotsBaromVisibWave heightAir tempDewpointWater temp
2017-Feb-24 23:33N 54°34' E 010°35'1010.2
2017-Feb-24 22:33N 54°35' E 010°52'9 9.0
2017-Feb-24 21:33N 54°36' E 011°08'9 9.2
2017-Feb-24 20:33N 54°33' E 011°22'10 9.5
2017-Feb-24 19:33N 54°29' E 011°38'9 9.5
2017-Feb-24 18:33N 54°27' E 011°53'9 9.4
2017-Feb-24 17:33N 54°28' E 012°09'10 9.6
2017-Feb-24 16:33N 54°37' E 012°15'5610.5
2017-Feb-24 11:14N 55°00' E 013°44'710.6
2017-Feb-24 10:32N 55°03' E 013°55'1210.6
2017-Feb-24 09:27N 55°10' E 014°12'1011.4
2017-Feb-24 08:33N 55°18' E 014°22'1111.3
2017-Feb-24 07:33N 55°27' E 014°35'1111.2
2017-Feb-24 06:32N 55°33' E 014°52'1111.3
2017-Feb-24 05:33N 55°38' E 015°09'1111.5
2017-Feb-24 04:33N 55°44' E 015°27'1211.8
2017-Feb-24 03:33N 55°50' E 015°45'1211.8
2017-Feb-24 02:33N 55°56' E 016°03'1211.8
2017-Feb-24 01:33N 56°01' E 016°22'1212.0
2017-Feb-24 00:33N 56°08' E 016°40'  
2017-Feb-19 03:29N 56°05' E 016°49'1112.2
2017-Feb-19 02:34N 55°59' E 016°32'1212.1
2017-Feb-19 01:33N 55°54' E 016°13'1211.9
2017-Feb-19 00:33N 55°47' E 015°55'1212.0
2017-Feb-18 23:33N 55°41' E 015°37'1211.7
2017-Feb-18 22:34N 55°35' E 015°19'1212.0
2017-Feb-18 21:33N 55°29' E 015°00'1211.9
2017-Feb-18 20:33N 55°24' E 014°42'1211.9
2017-Feb-18 19:33N 55°15' E 014°28'1212.1
2017-Feb-18 18:33N 55°05' E 014°14'1212.0
2017-Feb-18 17:32N 54°58' E 013°57'4012.1
2017-Feb-18 14:16N 54°44' E 012°53'912.9
2017-Feb-18 13:34N 54°39' E 012°40'1313.1
2017-Feb-18 12:34N 54°32' E 012°20'1211.7
2017-Feb-18 11:32N 54°24' E 012°06'1611.9
2017-Feb-18 10:14N 54°26' E 011°39'912.8
2017-Feb-18 09:33N 54°30' E 011°26'1312.7
2017-Feb-18 08:33N 54°35' E 011°06'1212.1
2017-Feb-18 07:33N 54°34' E 010°45'58 6.1
2017-Feb-17 22:05N 54°05' E 009°19'4 7.9
2017-Feb-17 21:33N 54°01' E 009°18'8 8.3
2017-Feb-17 20:33N 53°54' E 009°10'0 0.3
2017-Feb-17 19:33N 53°54' E 009°09'0 0.4
2017-Feb-17 18:33N 53°54' E 009°09'2 2.1
2017-Feb-17 17:33N 53°53' E 009°05'1211.8
2017-Feb-17 16:34N 53°51' E 008°46'1312.5
2017-Feb-17 15:33N 53°58' E 008°29'1212.3
2017-Feb-17 14:33N 53°59' E 008°08'8812.5
2017-Feb-17 07:32N 53°38' E 005°44'1111.2
2017-Feb-17 06:32N 53°34' E 005°26'1110.8
2017-Feb-17 05:32N 53°30' E 005°10'1110.7
2017-Feb-17 04:33N 53°26' E 004°53'1010.0
2017-Feb-17 03:32N 53°19' E 004°40'1110.8
2017-Feb-17 02:33N 53°10' E 004°32'1110.8
2017-Feb-17 01:33N 53°00' E 004°24'3310.9
2017-Feb-16 22:32N 52°34' E 003°52'3911.6
2017-Feb-16 19:13N 51°59' E 003°24'710.2
2017-Feb-16 18:32N 51°52' E 003°25'6 0.6
2017-Feb-16 07:25N 51°54' E 003°35'0 0.0
2017-Feb-16 06:31N 51°54' E 003°35'0 0.0
2017-Feb-16 05:28N 51°54' E 003°35'0 0.0
2017-Feb-16 04:25N 51°54' E 003°35'0 0.0
2017-Feb-16 03:25N 51°54' E 003°35'0 0.0
2017-Feb-16 00:19N 51°54' E 003°35'0 0.0
2017-Feb-15 08:25N 51°54' E 003°35'0 0.0
2017-Feb-15 03:28N 51°54' E 003°35'0 0.0
2017-Feb-15 02:25N 51°54' E 003°35'  
Track history (hours):
 
Tides and Currents Weather Stations Pressure Air Temp Water Temp Dewpoint Dewpoint Depression Visibility Wind Speed Wind Dir Waves Ship Positions

Pernille

Last reported at 2017-Feb-24 23:33 UTC. Time now 2017-Feb-25 05:19 UTC.
Position N 54°34' E 010°35'.

Length 83 m; draft 5.6 m.

Type: Cargo ship. MMSI: 212662000.

Date/timePositionNaut miles runAvg speedWind from/ knotsBaromVisibWave heightAir tempDewpointWater temp
2017-Feb-24 23:33N 54°34' E 010°35'1010.2
2017-Feb-24 22:33N 54°35' E 010°52'9 9.0
2017-Feb-24 21:33N 54°36' E 011°08'9 9.2
2017-Feb-24 20:33N 54°33' E 011°22'10 9.5
2017-Feb-24 19:33N 54°29' E 011°38'9 9.5
2017-Feb-24 18:33N 54°27' E 011°53'9 9.4
2017-Feb-24 17:33N 54°28' E 012°09'10 9.6
2017-Feb-24 16:33N 54°37' E 012°15'5610.5
2017-Feb-24 11:14N 55°00' E 013°44'710.6
2017-Feb-24 10:32N 55°03' E 013°55'1210.6
2017-Feb-24 09:27N 55°10' E 014°12'1011.4
2017-Feb-24 08:33N 55°18' E 014°22'1111.3
2017-Feb-24 07:33N 55°27' E 014°35'1111.2
2017-Feb-24 06:32N 55°33' E 014°52'1111.3
2017-Feb-24 05:33N 55°38' E 015°09'1111.5
2017-Feb-24 04:33N 55°44' E 015°27'1211.8
2017-Feb-24 03:33N 55°50' E 015°45'1211.8
2017-Feb-24 02:33N 55°56' E 016°03'1211.8
2017-Feb-24 01:33N 56°01' E 016°22'1212.0
2017-Feb-24 00:33N 56°08' E 016°40'  
2017-Feb-19 03:29N 56°05' E 016°49'1112.2
2017-Feb-19 02:34N 55°59' E 016°32'1212.1
2017-Feb-19 01:33N 55°54' E 016°13'1211.9
2017-Feb-19 00:33N 55°47' E 015°55'1212.0
2017-Feb-18 23:33N 55°41' E 015°37'1211.7
2017-Feb-18 22:34N 55°35' E 015°19'1212.0
2017-Feb-18 21:33N 55°29' E 015°00'1211.9
2017-Feb-18 20:33N 55°24' E 014°42'1211.9
2017-Feb-18 19:33N 55°15' E 014°28'1212.1
2017-Feb-18 18:33N 55°05' E 014°14'1212.0
2017-Feb-18 17:32N 54°58' E 013°57'4012.1
2017-Feb-18 14:16N 54°44' E 012°53'912.9
2017-Feb-18 13:34N 54°39' E 012°40'1313.1
2017-Feb-18 12:34N 54°32' E 012°20'1211.7
2017-Feb-18 11:32N 54°24' E 012°06'1611.9
2017-Feb-18 10:14N 54°26' E 011°39'912.8
2017-Feb-18 09:33N 54°30' E 011°26'1312.7
2017-Feb-18 08:33N 54°35' E 011°06'1212.1
2017-Feb-18 07:33N 54°34' E 010°45'58 6.1
2017-Feb-17 22:05N 54°05' E 009°19'4 7.9
2017-Feb-17 21:33N 54°01' E 009°18'8 8.3
2017-Feb-17 20:33N 53°54' E 009°10'0 0.3
2017-Feb-17 19:33N 53°54' E 009°09'0 0.4
2017-Feb-17 18:33N 53°54' E 009°09'2 2.1
2017-Feb-17 17:33N 53°53' E 009°05'1211.8
2017-Feb-17 16:34N 53°51' E 008°46'1312.5
2017-Feb-17 15:33N 53°58' E 008°29'1212.3
2017-Feb-17 14:33N 53°59' E 008°08'8812.5
2017-Feb-17 07:32N 53°38' E 005°44'1111.2
2017-Feb-17 06:32N 53°34' E 005°26'1110.8
2017-Feb-17 05:32N 53°30' E 005°10'1110.7
2017-Feb-17 04:33N 53°26' E 004°53'1010.0
2017-Feb-17 03:32N 53°19' E 004°40'1110.8
2017-Feb-17 02:33N 53°10' E 004°32'1110.8
2017-Feb-17 01:33N 53°00' E 004°24'3310.9
2017-Feb-16 22:32N 52°34' E 003°52'3911.6
2017-Feb-16 19:13N 51°59' E 003°24'710.2
2017-Feb-16 18:32N 51°52' E 003°25'6 0.6
2017-Feb-16 07:25N 51°54' E 003°35'0 0.0
2017-Feb-16 06:31N 51°54' E 003°35'0 0.0
2017-Feb-16 05:28N 51°54' E 003°35'0 0.0
2017-Feb-16 04:25N 51°54' E 003°35'0 0.0
2017-Feb-16 03:25N 51°54' E 003°35'0 0.0
2017-Feb-16 00:19N 51°54' E 003°35'0 0.0
2017-Feb-15 08:25N 51°54' E 003°35'0 0.0
2017-Feb-15 03:28N 51°54' E 003°35'0 0.0
2017-Feb-15 02:25N 51°54' E 003°35'  

Dump ship's entire track history